Aktualne dane pomiarowe

Uwaga, wersja testowa! Automatyczne pobieranie danych za pomocą narzędzi lub skryptów to umożliwiających jest zabronione.

Dane meteo z obszaru Polski uzyskane na podstawie depesz SYNOP pobieranych co godzinę z NWS. Najedź myszką na symbol przedstawiony w tabeli, aby uzyskać informacje co do jego znaczenia. Prosimy pamiętać, że to testowa wersja strony, która jeszcze nie jest ukończona. Stworzono również jest krótki FAQ dotyczący korzystania z tej podstrony Anomalie temperatury w chwili obecnej odniesione są do okresu referencyjnego 1951-2016. Okres ten będzie później zmieniony na 1981-2010. Kliknij ikonę aby pobrać plik CSV. Kliknij ikonę aby wygenerować mapę synoptyczną dla danego terminu.

Wybierz Datę:    

        

Sulejów (12469)

Dane terminowe dla wybranej stacji. Kliknij datę, aby otrzymać dane z tego terminu dla wszystkich stacji.

TemperaturaZachmurzenieWiatrCiśnienieOpadyPogoda
 Data t td wb tx tn tg rh  Nt Nl Cl Cm Ch ws wd g1 g2 wx mslp ppp ch 24h 12h t ww ww w1 w2  
2019-08-09 23:00:00 14.6 12.4 13.1--- 8715.0wx-wxwx1wx--11014.5 992.0 0.2----22----
2019-08-09 22:00:00 15.8 12.3 13.5--- 8020.0wx-wxwx1wx--11014.4 992.0 0.6----22----
2019-08-09 21:00:00 17.9 12.3 14.3--- 7030.0wx-wxwx1wx---1014.5 992.2 1.4---------
2019-08-09 20:00:00 18.2 11.9 14.2--- 6730.0wx-wxwx1wx--11014.0 991.8 1.3---------
2019-08-09 19:00:00 21.2 10.9 15.0--- 5240.0wx-wxwx0---01013.4 991.4 1.0---------
2019-08-09 18:00:00 23.9 9.4 15.5 28.1 18.1- 4040.0wxwxwxwxwx2wx-1221012.6 990.8 0.4- 0.012------
2019-08-09 17:00:00 26.0 9.3 16.3--- 3545.0wxwxwxwxwx4wx---1012.1 990.5 0.0---------
2019-08-09 16:00:00 26.6 8.9 16.4--- 3340.0wxwxwxwxwx4wx---1012.0 990.4 -0.2---------
2019-08-09 15:00:00 27.0 8.8 16.5--- 3235.0wxwxwxwx6wx-1261011.9 990.4 -0.3---------
2019-08-09 14:00:00 27.3 9.1 16.7--- 3235.0wxwxwxwx6wx-1061012.0 990.5 -0.3---------
2019-08-09 13:00:00 27.4 8.2 16.4--- 3035.0wxwxwxwx8wx-1281012.1 990.6 -0.5---------
2019-08-09 12:00:00 27.4 9.6 17.0--- 3340.0wxwxwxwx6wx-1161012.2 990.7 -0.6- 0.06------
2019-08-09 11:00:00 26.6 9.4 16.6--- 3435.0wxwxwxwx6wx11--1012.4 990.8 -0.7---------
2019-08-09 10:00:00 25.0 10.4 16.4--- 4040.0wxwxwxwx5wx-1051012.8 991.1 -0.3---------
2019-08-09 09:00:00 24.7 11.9 16.9--- 4540.0wxwxwxwxwx3wx8831013.0 991.3 0.0---------
2019-08-09 08:00:00 22.9 13.3 16.9--- 5530.0wxwxwxwx4wx--41013.4 991.5 0.3---------
2019-08-09 07:00:00 20.9 14.2 16.5--- 6630.0wxwxwxwxwx2wx--21013.4 991.4 0.5----22----
2019-08-09 06:00:00 18.1 14.3 15.5 19.6 12.3 11 7925.0wxwxwxwxwx2wx-621013.5 991.3 0.3 0.1 0.112-22--- 9.6
2019-08-09 05:00:00 14.0 12.6 13.0--- 9118.0wxwxwxwx2wx--21013.8 991.2 0.4----22----
2019-08-09 04:00:00 12.8 11.6 11.9--- 9218.0wxwxwxwxwx2wx--21013.5 990.9 0.0----22----
2019-08-09 03:00:00 12.5 11.5 11.8--- 9418.0wx-wx2wx-621013.7 991.0 0.5----22----
2019-08-09 02:00:00 13.3 11.9 12.3--- 9115.0wx-wx2wx--21013.4 990.8 0.5----22----
2019-08-09 01:00:00 13.5 12.3 12.6--- 9218.0wx-wx2wx---1013.5 990.9 0.6---------
2019-08-09 00:00:00 14.1 12.4 12.9--- 9025.0wx-wx2wx--21013.0 990.5 0.6- 0.16wx-w1--
2019-08-08 23:00:00 14.9 12.8 13.4--- 8725.0wx-wx2wx--21012.8 990.3 0.7---------
2019-08-08 22:00:00 15.5 13.4 14.0--- 8725.0wx-wx2wx--21012.7 990.3 0.9---------
2019-08-08 21:00:00 16.0 14.3 14.8--- 9020.0wx-wxwx2wx--21012.3 989.9 0.2---wx-w1--
2019-08-08 20:00:00 16.4 15.2 15.5--- 9316.0wx-wxwx2wx---1011.9 989.6 0.6---------
2019-08-08 19:00:00 17.7 14.9 15.8--- 8425.0wxwxwxwxwx1wx--11011.6 989.4 0.5---wx---
2019-08-08 18:00:00 19.6 14.1 16.0 26.2 18.5- 7120.0wxwxwx4wx-1341011.8 989.7 0.6--12wx-w1--
2019-08-08 17:00:00 23.6 11.9 16.5--- 4845.0wxwxwxwx3wx--31010.8 989.0 -0.3---------
2019-08-08 16:00:00 25.5 9.6 16.2--- 3740.0wxwxwxwx5wx---1010.5 988.9 -0.4---------
2019-08-08 15:00:00 25.3 9.9 16.3--- 3840.0wxwxwxwx5wx---1010.7 989.1 -0.2---------
2019-08-08 14:00:00 25.4 11.1 16.8--- 4135.0wxwxwxwx5wx--51010.9 989.3 0.4---------
2019-08-08 13:00:00 25.3 10.6 16.6--- 4035.0wxwxwxwx6wx-1161010.9 989.3 0.5---------
2019-08-08 12:00:00 25.1 10.8 16.6--- 4135.0wxwxwx7wx-1371011.0 989.3 1.1- 0.06------
2019-08-08 11:00:00 24.5 13.0 17.4--- 4935.0wxwxwx7wx--71010.6 988.9 1.0---------
2019-08-08 10:00:00 23.6 13.9 17.5--- 5535.0wxwxwx7wx121371010.6 988.8 1.4---------
2019-08-08 09:00:00 22.0 15.7 17.8--- 6825.0wxwxwx7wx--71010.1 988.2 1.4---------
2019-08-08 08:00:00 21.0 16.1 17.7--- 7425.0wxwxwx6wx--61009.8 987.9 2.0---------
2019-08-08 07:00:00 19.7 17.0 17.8--- 8418.0wxwxwx7wx--71009.4 987.4 2.2---------
2019-08-08 06:00:00 18.5 16.9 17.3 24.0 17.5 17 9010.0wxwxwx6wx--61008.9 986.8 2.2 4.4 4.012wx-w1- 4.4
2019-08-08 05:00:00 18.0 16.9 17.2--- 938.0wxwxwx5wx---1008.0 985.9 1.4---wx---
2019-08-08 04:00:00 17.5 16.6 16.8--- 9418.0wxwxwx4wx---1007.3 985.2 0.8---------
2019-08-08 03:00:00 17.6 16.9 17.1--- 9615.0wxwxwxwx3wx--31006.7 984.6 0.3---wx---
2019-08-08 02:00:00 18.1 17.2 17.4--- 948.0wxwxwx4wx--41006.6 984.5 0.3---wx-w1w2--
2019-08-08 01:00:00 18.5 17.6 17.8--- 958.0wxwxwxwx3wx--31006.5 984.4 0.1---wx-w1w2--
2019-08-08 00:00:00 18.7 17.9 18.1--- 9510.0wxwxwxwx3wx-1531006.3 984.3 0.4- 2.06wx-w1--
2.0 ms

 

Print Friendly, PDF & Email